Time;durP1;ratioP1;P1;durP2;ratioP2;P2;SDS_P1;SDS_P2;PMS_P1;PMS_P2;Temp;Humidity;BMP_temperature;BMP_pressure;BME280_temperature;BME280_humidity;BME280_pressure;Samples;Min_cycle;Max_cycle;Signal;HPM_P1;HPM_P2
2021/08/13 00:01:46;;;;;;;11.73;6.82;;;;;;;21.07;75.15;101552.56;5056568;28;20061;-66
2021/08/13 00:04:14;;;;;;;15.48;7.03;;;;;;;20.97;74.99;101542.66;5056308;28;20045;-66
2021/08/13 00:06:41;;;;;;;13.35;6.72;;;;;;;20.90;75.21;101556.50;5054978;28;20053;-66
2021/08/13 00:09:10;;;;;;;12.02;6.55;;;;;;;21.07;74.46;101546.94;5054502;28;20056;-67
2021/08/13 00:11:38;;;;;;;12.15;6.78;;;;;;;21.23;73.69;101550.53;5055294;28;20041;-66
2021/08/13 00:14:07;;;;;;;11.20;6.95;;;;;;;20.94;74.60;101542.56;5038221;28;20053;-67
2021/08/13 00:16:35;;;;;;;12.35;6.55;;;;;;;20.83;74.84;101547.94;5033616;28;20041;-66
2021/08/13 00:19:03;;;;;;;12.63;6.60;;;;;;;21.13;74.11;101554.69;5033283;28;20053;-67
2021/08/13 00:21:31;;;;;;;13.30;6.85;;;;;;;20.76;74.22;101553.38;5035498;28;20049;-67
2021/08/13 00:23:58;;;;;;;12.05;6.93;;;;;;;20.50;73.53;101560.66;5035956;28;20049;-67
2021/08/13 00:26:27;;;;;;;17.25;7.00;;;;;;;20.53;73.46;101559.94;5034672;28;20064;-66
2021/08/13 00:28:55;;;;;;;10.77;7.25;;;;;;;20.62;72.58;101555.81;5033623;28;20064;-67
2021/08/13 00:31:23;;;;;;;12.70;7.03;;;;;;;20.84;72.55;101566.38;5035832;28;20413;-67
2021/08/13 00:33:50;;;;;;;14.35;6.90;;;;;;;20.93;72.89;101558.59;5035846;28;20041;-67
2021/08/13 00:36:18;;;;;;;13.70;6.93;;;;;;;21.02;72.50;101572.44;5035676;28;20050;-67
2021/08/13 00:38:46;;;;;;;9.13;6.60;;;;;;;21.25;72.12;101565.00;5033980;28;20064;-67
2021/08/13 00:41:14;;;;;;;15.70;6.43;;;;;;;21.16;71.74;101570.81;5018205;28;20046;-68
2021/08/13 00:43:43;;;;;;;14.82;7.35;;;;;;;20.67;72.89;101563.13;5034356;28;20536;-67
2021/08/13 00:46:13;;;;;;;12.23;7.60;;;;;;;20.61;73.78;101562.56;5034760;28;20080;-68
2021/08/13 00:48:57;;;;;;;12.65;6.93;;;;;;;20.66;73.40;101556.69;5034388;28;20484;-67
2021/08/13 00:51:43;;;;;;;15.57;6.95;;;;;;;20.64;73.63;101561.03;5020692;28;20056;-67
2021/08/13 00:54:13;;;;;;;10.25;6.70;;;;;;;20.71;73.44;101570.41;5018069;28;20567;-68
2021/08/13 00:56:48;;;;;;;12.75;6.53;;;;;;;20.74;73.43;101583.72;5034170;28;20058;-67
2021/08/13 00:59:37;;;;;;;11.80;6.80;;;;;;;20.97;72.28;101581.09;5035294;28;20060;-68
2021/08/13 01:02:34;;;;;;;13.30;7.05;;;;;;;20.66;72.58;101578.28;5031427;28;20061;-68
2021/08/13 01:05:12;;;;;;;12.25;7.40;;;;;;;20.40;73.14;101575.19;5035389;28;20050;-66
2021/08/13 01:07:40;;;;;;;12.45;7.00;;;;;;;20.52;72.19;101569.53;5017924;28;20531;-67
2021/08/13 01:10:09;;;;;;;11.75;7.10;;;;;;;20.34;72.72;101563.44;5017385;28;20060;-66
2021/08/13 01:13:02;;;;;;;11.48;6.85;;;;;;;20.37;73.10;101570.31;5034043;28;20045;-66
2021/08/13 01:15:32;;;;;;;16.60;7.38;;;;;;;20.46;72.97;101570.94;5033830;28;20057;-67
2021/08/13 01:18:15;;;;;;;14.77;7.38;;;;;;;20.60;71.50;101577.75;5017780;28;20535;-67
2021/08/13 01:20:51;;;;;;;8.57;6.60;;;;;;;20.51;71.80;101574.31;5033220;28;20403;-68
2021/08/13 01:23:21;;;;;;;10.30;7.07;;;;;;;20.60;71.55;101572.16;5016421;28;20046;-68
2021/08/13 01:25:52;;;;;;;11.52;6.90;;;;;;;20.62;71.51;101578.22;5017225;28;20061;-68
2021/08/13 01:28:37;;;;;;;11.65;7.25;;;;;;;20.55;71.00;101568.81;5017091;28;20046;-67
2021/08/13 01:31:16;;;;;;;8.88;6.68;;;;;;;20.45;71.38;101569.34;5017316;28;20045;-66
2021/08/13 01:33:52;;;;;;;9.65;6.40;;;;;;;20.74;70.48;101558.53;5033502;28;20050;-67
2021/08/13 01:36:23;;;;;;;12.45;6.65;;;;;;;20.83;70.09;101558.34;5017179;28;20057;-67
2021/08/13 01:38:54;;;;;;;9.88;6.63;;;;;;;20.84;69.42;101565.53;5016833;28;20049;-67
2021/08/13 01:41:22;;;;;;;11.80;6.90;;;;;;;20.89;69.04;101560.50;5033537;28;20045;-66
2021/08/13 01:43:50;;;;;;;19.17;7.22;;;;;;;20.22;71.30;101568.28;5017379;28;20061;-67
2021/08/13 01:46:20;;;;;;;;;;;;;;;20.27;71.33;101577.25;5018243;28;20049;-68
2021/08/13 01:48:56;;;;;;;10.35;6.88;;;;;;;20.25;70.59;101575.97;5033276;28;19931;-66
2021/08/13 01:51:27;;;;;;;11.50;7.00;;;;;;;20.18;71.16;101571.00;5032883;28;20073;-68
2021/08/13 01:53:55;;;;;;;13.95;6.88;;;;;;;20.43;70.39;101571.69;5024586;28;20061;-67
2021/08/13 01:56:26;;;;;;;11.57;6.50;;;;;;;20.23;71.05;101564.31;5031100;28;20049;-66
2021/08/13 01:58:54;;;;;;;14.30;6.93;;;;;;;20.20;71.37;101570.63;5013898;28;20077;-66
2021/08/13 02:01:23;;;;;;;13.18;7.28;;;;;;;20.08;71.76;101574.28;5018674;28;20046;-66
2021/08/13 02:03:51;;;;;;;13.52;6.75;;;;;;;20.03;72.11;101569.75;5033224;28;20563;-67
2021/08/13 02:06:19;;;;;;;10.40;7.00;;;;;;;20.00;72.42;101569.63;5033084;28;20064;-67
2021/08/13 02:08:54;;;;;;;11.23;7.18;;;;;;;20.00;72.50;101576.06;5032919;28;20064;-67
2021/08/13 02:11:30;;;;;;;11.35;6.63;;;;;;;20.16;71.46;101573.34;5049586;28;20052;-66
2021/08/13 02:13:58;;;;;;;12.88;7.10;;;;;;;20.11;72.12;101567.97;5038794;28;20049;-67
2021/08/13 02:16:30;;;;;;;14.48;7.10;;;;;;;20.51;70.25;101577.09;5032671;28;20064;-67
2021/08/13 02:19:06;;;;;;;10.82;6.60;;;;;;;20.27;70.71;101570.84;5032722;28;20068;-67
2021/08/13 02:21:37;;;;;;;13.80;7.28;;;;;;;20.25;71.07;101581.56;5032761;28;20540;-67
2021/08/13 02:24:06;;;;;;;14.65;7.13;;;;;;;20.13;71.48;101569.25;5016576;28;20416;-66
2021/08/13 02:26:35;;;;;;;11.85;7.13;;;;;;;20.15;71.79;101566.88;5032780;28;20053;-66
2021/08/13 02:29:03;;;;;;;10.30;7.18;;;;;;;20.09;71.69;101568.31;5037068;28;20053;-67
2021/08/13 02:31:30;;;;;;;10.85;6.82;;;;;;;19.95;71.63;101565.13;5016276;28;20055;-67
2021/08/13 02:33:59;;;;;;;9.95;7.03;;;;;;;19.78;72.64;101571.03;5032738;28;20072;-68
2021/08/13 02:36:37;;;;;;;9.63;6.72;;;;;;;20.01;71.95;101574.88;5017064;28;20057;-66
2021/08/13 02:39:10;;;;;;;13.10;6.70;;;;;;;20.07;71.17;101567.03;5032474;28;20080;-66
2021/08/13 02:41:40;;;;;;;12.80;7.43;;;;;;;19.65;73.01;101577.00;5016591;28;20049;-66
2021/08/13 02:44:08;;;;;;;12.82;7.47;;;;;;;20.01;71.69;101574.88;5022608;28;20048;-67
2021/08/13 02:46:40;;;;;;;11.97;7.23;;;;;;;19.97;71.88;101570.34;5018191;28;20053;-67
2021/08/13 02:49:09;;;;;;;10.90;6.95;;;;;;;19.90;71.98;101559.78;5029122;28;20053;-67
2021/08/13 02:51:40;;;;;;;9.90;6.70;;;;;;;20.17;71.23;101572.19;5030570;28;20628;-67
2021/08/13 02:54:17;;;;;;;13.60;7.38;;;;;;;20.03;71.50;101580.94;5032323;28;20053;-68
2021/08/13 02:56:46;;;;;;;12.05;6.70;;;;;;;19.70;72.51;101583.16;5016021;28;20060;-67
2021/08/13 02:59:17;;;;;;;9.50;7.10;;;;;;;19.85;72.61;101579.63;5032503;28;20053;-67
2021/08/13 03:01:44;;;;;;;14.00;6.70;;;;;;;19.74;72.65;101574.88;5032278;28;20045;-67
2021/08/13 03:04:13;;;;;;;8.80;6.90;;;;;;;19.78;72.29;101571.03;5032409;28;20060;-66
2021/08/13 03:06:42;;;;;;;11.65;6.82;;;;;;;19.81;72.58;101587.09;5015645;28;20050;-67
2021/08/13 03:09:10;;;;;;;14.70;6.90;;;;;;;19.80;72.29;101593.84;5031948;28;20076;-68
2021/08/13 03:11:39;;;;;;;11.35;7.03;;;;;;;19.83;71.82;101590.34;5031645;28;20057;-67
2021/08/13 03:14:09;;;;;;;11.13;7.07;;;;;;;19.52;73.36;101586.56;5024977;28;20053;-67
2021/08/13 03:16:37;;;;;;;11.15;6.57;;;;;;;19.55;73.15;101602.63;5033110;28;20065;-67
2021/08/13 03:19:06;;;;;;;14.45;6.72;;;;;;;19.54;73.57;101590.66;5016880;28;20052;-67
2021/08/13 03:21:34;;;;;;;9.27;6.72;;;;;;;19.78;71.94;101585.00;5011649;28;20153;-66
2021/08/13 03:24:02;;;;;;;11.35;6.35;;;;;;;19.53;72.60;101575.03;4989828;28;20052;-66
2021/08/13 03:26:32;;;;;;;11.20;6.50;;;;;;;19.81;71.96;101572.28;5016038;28;20057;-67
2021/08/13 03:29:03;;;;;;;9.75;6.65;;;;;;;19.31;72.54;101574.75;5032138;28;20049;-66
2021/08/13 03:31:36;;;;;;;10.60;6.38;;;;;;;19.29;73.25;101579.81;4999263;28;20049;-67
2021/08/13 03:34:07;;;;;;;8.95;6.40;;;;;;;19.46;72.34;101585.19;5031247;28;20052;-66
2021/08/13 03:36:35;;;;;;;11.73;6.53;;;;;;;19.53;71.55;101580.63;5021454;28;20675;-66
2021/08/13 03:39:06;;;;;;;9.40;6.18;;;;;;;19.29;72.81;101577.84;5031583;28;20060;-66
2021/08/13 03:41:34;;;;;;;10.35;6.22;;;;;;;19.43;72.01;101583.91;5032439;28;20048;-67
2021/08/13 03:44:02;;;;;;;9.10;6.07;;;;;;;19.32;72.28;101588.34;5031548;28;20076;-66
2021/08/13 03:46:30;;;;;;;9.70;6.35;;;;;;;19.01;73.29;101577.75;5030737;28;20064;-67
2021/08/13 03:49:01;;;;;;;11.30;6.25;;;;;;;19.01;73.10;101579.72;5031252;28;20045;-67
2021/08/13 03:51:28;;;;;;;9.30;5.82;;;;;;;18.89;73.97;101579.72;5032242;28;20041;-66
2021/08/13 03:53:56;;;;;;;10.38;6.32;;;;;;;19.36;72.86;101580.91;5034127;28;20053;-66
2021/08/13 03:56:26;;;;;;;13.48;6.40;;;;;;;19.19;72.58;101583.94;5031001;28;20061;-66
2021/08/13 03:58:54;;;;;;;9.45;6.35;;;;;;;19.10;72.81;101586.03;5031183;28;20046;-67
2021/08/13 04:01:22;;;;;;;11.32;6.50;;;;;;;19.05;73.42;101583.47;5031203;28;20065;-68
2021/08/13 04:03:50;;;;;;;10.15;6.43;;;;;;;18.94;73.51;101588.69;5034578;28;20504;-67
2021/08/13 04:06:18;;;;;;;10.55;6.28;;;;;;;19.38;72.51;101589.75;5035611;28;20045;-68
2021/08/13 04:08:45;;;;;;;13.20;6.63;;;;;;;19.12;72.73;101594.88;5034846;28;20049;-66
2021/08/13 04:11:13;;;;;;;10.40;6.10;;;;;;;18.82;73.88;101602.66;5036881;28;20049;-66
2021/08/13 04:13:47;;;;;;;9.60;6.05;;;;;;;18.89;74.12;101600.09;5037369;28;20385;-67
2021/08/13 04:16:15;;;;;;;11.85;6.13;;;;;;;19.02;72.56;101601.72;5034658;28;20053;-66
2021/08/13 04:18:42;;;;;;;11.30;6.38;;;;;;;19.15;73.53;101615.69;5036008;28;20060;-66
2021/08/13 04:21:10;;;;;;;9.38;6.28;;;;;;;19.16;72.40;101609.75;5034489;28;20429;-67
2021/08/13 04:23:38;;;;;;;11.40;6.45;;;;;;;18.97;73.58;101615.91;5047060;28;20060;-66
2021/08/13 04:26:06;;;;;;;13.98;6.30;;;;;;;19.05;73.15;101620.59;5015250;28;20149;-66
2021/08/13 04:28:33;;;;;;;9.32;6.22;;;;;;;19.16;72.10;101611.75;5054296;28;20049;-67
2021/08/13 04:31:02;;;;;;;12.10;6.18;;;;;;;18.91;72.78;101614.53;5050687;28;20064;-67
2021/08/13 04:33:29;;;;;;;8.40;5.90;;;;;;;19.38;71.39;101612.09;5035841;28;20052;-69
2021/08/13 04:36:00;;;;;;;11.95;6.18;;;;;;;19.10;72.06;101611.16;5034619;28;20049;-68
2021/08/13 04:38:28;;;;;;;11.18;5.88;;;;;;;18.88;73.23;101614.41;5013161;28;20407;-67
2021/08/13 04:40:55;;;;;;;12.60;6.03;;;;;;;19.11;72.03;101601.59;5033305;28;20053;-68
2021/08/13 04:43:23;;;;;;;9.50;5.93;;;;;;;19.34;72.00;101624.31;5034465;28;20057;-68
2021/08/13 04:45:51;;;;;;;10.65;5.78;;;;;;;19.46;70.95;101618.72;5034353;28;20045;-67
2021/08/13 04:48:19;;;;;;;13.13;6.13;;;;;;;19.28;71.82;101622.91;5047604;28;20049;-67
2021/08/13 04:50:46;;;;;;;12.80;6.07;;;;;;;19.00;72.68;101629.16;5050435;28;20382;-69
2021/08/13 04:53:16;;;;;;;15.20;6.38;;;;;;;19.34;74.94;101619.56;5017182;28;20045;-70
2021/08/13 04:55:43;;;;;;;15.90;6.70;;;;;;;19.47;73.83;101625.94;5033904;28;20046;-70
2021/08/13 04:58:11;;;;;;;11.98;5.95;;;;;;;19.65;73.54;101625.31;5013756;28;20045;-69
2021/08/13 05:00:39;;;;;;;13.82;5.88;;;;;;;19.36;72.51;101628.41;5029381;28;20539;-69
2021/08/13 05:03:13;;;;;;;9.82;6.65;;;;;;;19.37;73.02;101630.03;5032578;28;20049;-68
2021/08/13 05:05:46;;;;;;;11.85;5.75;;;;;;;19.42;71.97;101638.16;5033602;28;20057;-68
2021/08/13 05:08:13;;;;;;;10.05;5.97;;;;;;;19.62;71.46;101626.03;5034098;28;20137;-68
2021/08/13 05:10:42;;;;;;;8.82;5.70;;;;;;;19.73;70.78;101637.56;5033742;28;20160;-66
2021/08/13 05:13:09;;;;;;;13.25;5.93;;;;;;;19.62;70.56;101645.59;5029393;28;20048;-68
2021/08/13 05:15:42;;;;;;;12.50;5.70;;;;;;;19.59;71.68;101645.50;5037221;28;20057;-68
2021/08/13 05:18:10;;;;;;;10.70;6.00;;;;;;;19.54;71.27;101649.34;5046913;28;20057;-68
2021/08/13 05:20:38;;;;;;;8.68;5.85;;;;;;;19.54;71.70;101652.16;5023524;28;20053;-62
2021/08/13 05:23:07;;;;;;;10.25;5.50;;;;;;;19.89;70.27;101656.03;5045858;28;20507;-65
2021/08/13 05:25:34;;;;;;;12.43;5.82;;;;;;;19.75;69.34;101658.38;5034993;28;20049;-63
2021/08/13 05:28:03;;;;;;;11.07;5.82;;;;;;;19.56;71.13;101665.75;5031160;28;20065;-61
2021/08/13 05:30:34;;;;;;;9.88;6.00;;;;;;;20.16;68.77;101679.63;5034136;28;20038;-62
2021/08/13 05:33:02;;;;;;;9.73;5.25;;;;;;;20.10;68.80;101678.25;5028354;28;20057;-61
2021/08/13 05:35:30;;;;;;;10.18;5.38;;;;;;;20.28;68.16;101679.59;5036556;28;20436;-70
2021/08/13 05:38:01;;;;;;;11.52;5.93;;;;;;;20.35;67.44;101687.38;5023653;28;20536;-70
2021/08/13 05:40:29;;;;;;;16.13;6.28;;;;;;;19.93;68.60;101684.09;5014912;28;20054;-69
2021/08/13 05:42:59;;;;;;;10.20;5.80;;;;;;;20.10;68.02;101692.22;5014639;28;20053;-69
2021/08/13 05:45:27;;;;;;;10.10;5.87;;;;;;;19.79;68.16;101678.06;5043074;28;20045;-69
2021/08/13 05:47:56;;;;;;;12.73;5.88;;;;;;;19.61;69.06;101674.72;5049852;28;20049;-71
2021/08/13 05:50:24;;;;;;;9.32;6.03;;;;;;;19.71;69.19;101684.59;5035416;28;20053;-69
2021/08/13 05:52:52;;;;;;;12.98;5.47;;;;;;;19.85;68.64;101682.25;5049912;28;20480;-69
2021/08/13 05:55:19;;;;;;;17.20;5.65;;;;;;;19.76;68.43;101675.97;5049705;28;20065;-70
2021/08/13 05:57:46;;;;;;;11.18;5.13;;;;;;;19.42;69.69;101696.03;5033261;28;20160;-70
2021/08/13 06:00:15;;;;;;;12.93;5.50;;;;;;;19.70;68.81;101694.97;5033219;28;20037;-70
2021/08/13 06:02:55;;;;;;;11.07;5.28;;;;;;;19.72;68.18;101689.84;5032467;28;20618;-62
2021/08/13 06:05:23;;;;;;;12.32;5.43;;;;;;;19.58;68.87;101691.38;5033097;28;20420;-62
2021/08/13 06:07:52;;;;;;;13.63;5.72;;;;;;;19.79;68.92;101689.25;5032962;28;20068;-63
2021/08/13 06:10:21;;;;;;;9.57;5.47;;;;;;;19.69;68.68;101681.34;5034429;28;20045;-70
2021/08/13 06:12:48;;;;;;;12.68;5.72;;;;;;;19.76;68.52;101675.97;5037382;28;20045;-70
2021/08/13 06:15:16;;;;;;;10.00;5.18;;;;;;;19.89;68.26;101675.59;5052816;28;20053;-62
2021/08/13 06:17:44;;;;;;;13.43;5.97;;;;;;;19.92;67.92;101683.28;5052691;28;20064;-62
2021/08/13 06:20:16;;;;;;;17.58;5.65;;;;;;;20.08;67.40;101686.16;5036290;28;20045;-62
2021/08/13 06:22:56;;;;;;;11.07;5.45;;;;;;;20.05;67.05;101695.25;5037529;28;20045;-70
2021/08/13 06:25:24;;;;;;;15.93;6.03;;;;;;;19.73;67.36;101702.69;5052339;28;20057;-62
2021/08/13 06:27:51;;;;;;;15.23;5.65;;;;;;;19.54;68.81;101708.03;5036348;28;20045;-70
2021/08/13 06:30:21;;;;;;;16.23;5.47;;;;;;;19.75;68.31;101693.94;5053095;28;20052;-70
2021/08/13 06:32:50;;;;;;;9.25;4.38;;;;;;;19.82;66.32;101706.13;5036693;28;20037;-70
2021/08/13 06:35:17;;;;;;;10.43;4.97;;;;;;;19.55;67.72;101715.25;5036082;28;20057;-70
2021/08/13 06:37:49;;;;;;;11.75;5.10;;;;;;;19.80;66.76;101716.88;5054323;28;20056;-70
2021/08/13 06:40:18;;;;;;;14.88;4.82;;;;;;;19.29;68.21;101725.91;5053170;28;20055;-69
2021/08/13 06:42:46;;;;;;;9.80;4.85;;;;;;;19.50;68.48;101723.88;5051165;28;20083;-70
2021/08/13 06:45:17;;;;;;;9.43;4.65;;;;;;;19.77;66.98;101727.94;5052466;28;20523;-71
2021/08/13 06:47:45;;;;;;;11.05;4.75;;;;;;;20.01;66.54;101725.91;5019692;28;20053;-62
2021/08/13 06:50:13;;;;;;;7.70;5.30;;;;;;;20.17;65.82;101726.84;5052208;28;20055;-63
2021/08/13 06:52:47;;;;;;;9.68;4.78;;;;;;;19.88;66.33;101727.09;5051755;28;20777;-62
2021/08/13 06:55:15;;;;;;;8.20;4.55;;;;;;;19.42;68.34;101732.38;5052058;28;20416;-62
2021/08/13 06:57:43;;;;;;;10.23;4.60;;;;;;;19.72;67.60;101733.75;5035161;28;20500;-63
2021/08/13 07:00:12;;;;;;;7.70;4.70;;;;;;;19.71;67.60;101723.75;5052238;28;20083;-62
2021/08/13 07:02:40;;;;;;;10.68;4.70;;;;;;;19.66;67.52;101721.19;5051676;28;20049;-63
2021/08/13 07:05:08;;;;;;;9.65;4.93;;;;;;;19.74;67.22;101721.06;5051885;28;20053;-62
2021/08/13 07:07:37;;;;;;;14.43;4.88;;;;;;;19.73;66.84;101722.25;5052002;28;20053;-63
2021/08/13 07:10:07;;;;;;;7.40;4.80;;;;;;;19.72;66.66;101725.34;5052194;28;20049;-62
2021/08/13 07:12:35;;;;;;;9.13;4.33;;;;;;;19.79;66.62;101736.78;5048842;28;20038;-63
2021/08/13 07:15:04;;;;;;;11.10;4.93;;;;;;;19.68;67.33;101746.81;5033471;28;20056;-63
2021/08/13 07:17:32;;;;;;;9.75;4.30;;;;;;;19.63;67.29;101749.84;5033365;28;20115;-62
2021/08/13 07:20:05;;;;;;;10.95;4.32;;;;;;;19.68;66.94;101758.00;5016302;28;20053;-63
2021/08/13 07:22:33;;;;;;;12.90;4.28;;;;;;;19.87;66.71;101747.88;5031223;28;20374;-63
2021/08/13 07:25:01;;;;;;;9.38;4.07;;;;;;;20.08;65.85;101748.50;5032087;28;20060;-63
2021/08/13 07:27:29;;;;;;;6.55;3.75;;;;;;;20.31;64.30;101753.63;5015873;28;20454;-63
2021/08/13 07:29:56;;;;;;;9.88;3.88;;;;;;;20.05;63.96;101754.81;5032181;28;20061;-63
2021/08/13 07:32:24;;;;;;;7.72;3.70;;;;;;;20.07;64.62;101749.69;5031390;28;20056;-64
2021/08/13 07:34:52;;;;;;;7.45;3.50;;;;;;;20.26;63.27;101753.88;5015542;28;20061;-63
2021/08/13 07:37:26;;;;;;;9.55;3.90;;;;;;;20.21;63.10;101766.13;5032148;28;20060;-63
2021/08/13 07:39:53;;;;;;;9.10;3.92;;;;;;;20.00;63.92;101776.59;5035691;28;20408;-62
2021/08/13 07:42:26;;;;;;;9.27;3.78;;;;;;;20.31;63.24;101776.81;5035745;28;20570;-63
2021/08/13 07:44:55;;;;;;;7.80;3.60;;;;;;;20.38;62.67;101779.81;5035898;28;20049;-62
2021/08/13 07:47:23;;;;;;;7.95;3.60;;;;;;;20.25;62.66;101775.44;5035804;28;20715;-62
2021/08/13 07:49:50;;;;;;;10.77;3.95;;;;;;;20.72;62.12;101784.03;5035761;28;20057;-63
2021/08/13 07:52:18;;;;;;;10.52;4.03;;;;;;;20.61;62.04;101774.50;5035407;28;20045;-62
2021/08/13 07:54:45;;;;;;;8.98;3.92;;;;;;;20.55;62.04;101781.53;5035291;28;20049;-63
2021/08/13 07:57:15;;;;;;;11.73;3.90;;;;;;;20.36;62.62;101787.78;5035758;28;20056;-63
2021/08/13 07:59:42;;;;;;;8.75;3.90;;;;;;;20.73;61.84;101788.50;5036985;28;20041;-63
2021/08/13 08:02:10;;;;;;;6.95;3.60;;;;;;;20.70;62.10;101800.38;5035350;28;20064;-62
2021/08/13 08:04:37;;;;;;;10.65;3.75;;;;;;;20.78;62.02;101800.22;5036752;28;20046;-62
2021/08/13 08:07:04;;;;;;;7.57;3.92;;;;;;;20.90;61.59;101804.97;5036824;28;20045;-64
2021/08/13 08:09:31;;;;;;;7.50;3.90;;;;;;;20.74;61.79;101810.53;5036581;28;20057;-63
2021/08/13 08:11:59;;;;;;;8.60;3.88;;;;;;;21.05;60.96;101812.63;5036660;28;20049;-63
2021/08/13 08:14:26;;;;;;;10.85;3.80;;;;;;;21.33;60.16;101821.84;5053645;28;20096;-62
2021/08/13 08:16:56;;;;;;;5.80;3.45;;;;;;;21.03;60.90;101829.00;5056557;28;20067;-62
2021/08/13 08:19:23;;;;;;;8.60;3.63;;;;;;;21.13;61.00;101828.50;5056565;28;20049;-63
2021/08/13 08:21:50;;;;;;;6.70;3.90;;;;;;;20.96;61.00;101818.38;5056333;28;20056;-62
2021/08/13 08:24:17;;;;;;;8.15;3.63;;;;;;;20.77;62.00;101825.78;5056149;28;20044;-63
2021/08/13 08:26:45;;;;;;;10.40;4.45;;;;;;;20.74;62.54;101823.72;5056279;28;20586;-63
2021/08/13 08:29:12;;;;;;;10.05;3.90;;;;;;;20.78;62.79;101817.03;5056384;28;20127;-63
2021/08/13 08:31:40;;;;;;;7.95;3.65;;;;;;;21.11;60.72;101828.03;5054751;28;20424;-63
2021/08/13 08:34:07;;;;;;;11.27;4.38;;;;;;;21.21;60.74;101825.53;5055997;28;20544;-64
2021/08/13 08:36:34;;;;;;;8.55;3.90;;;;;;;20.96;61.26;101817.53;5056144;28;20052;-64
2021/08/13 08:39:03;;;;;;;11.95;4.00;;;;;;;21.16;61.33;101824.97;5054337;28;20121;-64
2021/08/13 08:41:30;;;;;;;7.70;3.85;;;;;;;21.09;61.32;101833.19;5056172;28;20397;-63
2021/08/13 08:43:57;;;;;;;9.90;3.92;;;;;;;21.02;61.71;101832.97;5055559;28;20508;-63
2021/08/13 08:46:25;;;;;;;8.88;4.50;;;;;;;21.08;61.36;101831.53;5056090;28;20049;-63
2021/08/13 08:48:53;;;;;;;17.05;4.72;;;;;;;21.40;60.32;101829.63;5054263;28;20049;-64
2021/08/13 08:51:21;;;;;;;10.80;3.80;;;;;;;21.34;60.00;101829.06;5054605;28;20052;-62
2021/08/13 08:53:50;;;;;;;12.82;4.50;;;;;;;21.54;60.13;101824.38;5054203;28;20056;-64
2021/08/13 08:56:18;;;;;;;8.17;4.27;;;;;;;21.91;58.69;101828.59;5054250;28;20083;-63
2021/08/13 08:58:46;;;;;;;12.93;4.20;;;;;;;21.71;58.66;101824.84;5055736;28;20041;-63
2021/08/13 09:01:17;;;;;;;13.00;4.28;;;;;;;21.82;58.76;101827.94;5054516;28;20045;-63
2021/08/13 09:03:46;;;;;;;8.70;3.75;;;;;;;21.52;59.22;101815.50;5055083;28;20052;-63
2021/08/13 09:06:16;;;;;;;11.95;3.95;;;;;;;21.74;58.90;101809.31;5055376;28;20491;-64
2021/08/13 09:08:43;;;;;;;;;;;;;;;22.22;57.62;101808.91;5055700;28;20048;-63
2021/08/13 09:11:11;;;;;;;11.25;3.78;;;;;;;22.24;57.24;101809.34;5055478;28;19928;-64
2021/08/13 09:13:38;;;;;;;10.90;3.85;;;;;;;22.26;56.58;101807.00;5043264;28;20045;-64
2021/08/13 09:16:13;;;;;;;9.02;3.63;;;;;;;22.50;55.80;101805.91;5035321;28;20054;-63
2021/08/13 09:18:45;;;;;;;10.38;3.55;;;;;;;22.44;55.52;101801.78;5033913;28;20057;-63
2021/08/13 09:21:20;;;;;;;12.52;3.88;;;;;;;22.98;54.42;101802.56;5035162;28;20049;-64
2021/08/13 09:23:47;;;;;;;12.68;3.78;;;;;;;22.94;54.32;101807.28;5033418;28;20033;-63
2021/08/13 09:26:23;;;;;;;6.75;3.50;;;;;;;22.53;54.88;101813.59;5035206;28;20056;-63
2021/08/13 09:29:10;;;;;;;7.22;4.03;;;;;;;22.89;53.69;101816.81;5033585;28;20060;-64
2021/08/13 09:31:51;;;;;;;9.65;4.28;;;;;;;22.48;55.00;101825.13;5033879;28;20041;-62
2021/08/13 09:34:41;;;;;;;9.93;3.78;;;;;;;23.26;53.63;101805.91;5033395;28;20366;-64
2021/08/13 09:37:15;;;;;;;11.05;4.60;;;;;;;23.77;52.18;101812.09;5033420;28;20061;-62
2021/08/13 09:39:42;;;;;;;8.80;3.78;;;;;;;23.93;51.16;101810.75;5034559;28;20049;-63
2021/08/13 09:42:10;;;;;;;8.50;3.40;;;;;;;23.74;51.49;101799.59;5034831;28;20049;-62
2021/08/13 09:44:40;;;;;;;10.88;3.60;;;;;;;23.89;51.67;101793.00;5033394;28;20172;-63
2021/08/13 09:47:09;;;;;;;6.32;3.42;;;;;;;23.88;51.12;101799.81;5033584;28;20064;-63
2021/08/13 09:49:39;;;;;;;6.80;3.85;;;;;;;23.56;52.12;101797.66;5034625;28;20060;-64
2021/08/13 09:52:11;;;;;;;8.02;3.50;;;;;;;23.82;52.14;101794.88;5033314;28;20504;-64
2021/08/13 09:54:38;;;;;;;10.82;3.53;;;;;;;24.22;50.87;101793.13;5033981;28;20049;-64
2021/08/13 09:57:10;;;;;;;9.77;4.15;;;;;;;24.32;49.60;101788.88;5017001;28;20436;-63
2021/08/13 09:59:38;;;;;;;6.55;3.72;;;;;;;24.22;50.48;101797.94;5034280;28;20626;-63
2021/08/13 10:02:11;;;;;;;7.28;3.75;;;;;;;24.23;49.79;101799.59;5032942;28;20050;-64
2021/08/13 10:04:40;;;;;;;8.65;4.00;;;;;;;23.84;50.65;101795.31;5033992;28;20056;-63
2021/08/13 10:07:09;;;;;;;7.88;3.97;;;;;;;23.95;50.45;101791.50;5033242;28;20069;-63
2021/08/13 10:09:36;;;;;;;12.43;4.30;;;;;;;23.99;50.73;101798.00;5032832;28;20053;-63
2021/08/13 10:12:05;;;;;;;10.48;4.10;;;;;;;23.63;51.30;101792.97;5034362;28;20054;-64
2021/08/13 10:14:42;;;;;;;7.80;3.78;;;;;;;23.74;50.82;101790.34;5052548;28;20067;-63
2021/08/13 10:17:19;;;;;;;8.73;4.20;;;;;;;24.17;50.46;101785.03;5053163;28;20049;-64
2021/08/13 10:20:03;;;;;;;8.18;4.28;;;;;;;24.04;50.79;101786.41;5052670;28;20076;-64
2021/08/13 10:22:32;;;;;;;11.10;4.60;;;;;;;23.80;51.48;101783.22;5020186;28;20049;-70
2021/08/13 10:25:00;;;;;;;12.43;4.07;;;;;;;23.74;52.38;101781.88;5052386;28;20518;-63
2021/08/13 10:27:30;;;;;;;10.40;4.55;;;;;;;23.87;52.01;101795.38;5052660;28;20052;-64
2021/08/13 10:30:02;;;;;;;8.57;4.60;;;;;;;24.21;51.14;101785.91;5052282;28;20049;-71
2021/08/13 10:32:36;;;;;;;8.35;4.75;;;;;;;24.35;50.51;101786.09;5052456;28;20056;-71
2021/08/13 10:35:04;;;;;;;9.73;4.53;;;;;;;24.73;50.15;101787.00;5052065;28;20419;-70
2021/08/13 10:37:32;;;;;;;9.57;4.90;;;;;;;24.74;49.82;101783.03;5052366;28;20059;-71
2021/08/13 10:40:00;;;;;;;8.07;5.10;;;;;;;24.64;50.94;101780.81;5036223;28;20052;-70
2021/08/13 10:42:29;;;;;;;9.50;4.38;;;;;;;24.43;50.83;101792.63;5052607;28;20053;-71
2021/08/13 10:45:04;;;;;;;7.88;4.28;;;;;;;24.91;50.38;101791.69;5035500;28;20052;-71
2021/08/13 10:47:35;;;;;;;11.48;5.72;;;;;;;25.42;48.17;101781.38;5052578;28;20048;-70
2021/08/13 10:50:06;;;;;;;14.50;4.93;;;;;;;25.12;49.17;101777.81;5036376;28;20061;-70
2021/08/13 10:52:35;;;;;;;9.05;4.80;;;;;;;25.02;49.30;101778.50;5035872;28;20404;-71
2021/08/13 10:55:08;;;;;;;9.57;4.47;;;;;;;25.14;48.88;101785.91;5052089;28;20053;-70
2021/08/13 10:57:47;;;;;;;9.70;4.90;;;;;;;25.15;49.72;101788.34;5051854;28;20053;-71
2021/08/13 11:00:22;;;;;;;9.57;4.63;;;;;;;25.07;49.36;101780.19;5052354;28;20052;-70
2021/08/13 11:03:19;;;;;;;7.20;4.80;;;;;;;24.91;49.45;101776.78;5052348;28;20048;-70
2021/08/13 11:05:59;;;;;;;9.13;4.88;;;;;;;25.08;49.14;101779.81;5035713;28;20052;-64
2021/08/13 11:08:40;;;;;;;16.40;6.15;;;;;;;24.76;50.08;101778.59;5052009;28;20057;-63
2021/08/13 11:11:11;;;;;;;15.32;5.75;;;;;;;25.14;49.26;101783.09;5035991;28;20068;-63
2021/08/13 11:13:43;;;;;;;9.13;5.20;;;;;;;25.45;48.88;101769.31;5045458;28;20049;-63
2021/08/13 11:16:31;;;;;;;11.40;5.10;;;;;;;25.22;50.00;101777.13;5035616;28;20505;-66
2021/08/13 11:19:09;;;;;;;12.93;6.03;;;;;;;24.70;50.97;101779.34;5036436;28;20064;-64
2021/08/13 11:21:41;;;;;;;10.73;5.60;;;;;;;24.68;51.15;101776.06;5036559;28;20060;-64
2021/08/13 11:24:09;;;;;;;9.35;5.60;;;;;;;24.93;51.15;101766.72;5037028;28;20057;-70
2021/08/13 11:26:58;;;;;;;11.77;4.80;;;;;;;25.69;48.88;101755.81;5036111;28;20051;-72
2021/08/13 11:29:42;;;;;;;10.50;5.20;;;;;;;26.05;48.26;101764.19;5037431;28;20058;-71
2021/08/13 11:32:17;;;;;;;11.70;5.35;;;;;;;25.32;49.99;101765.13;5036110;28;20060;-64
2021/08/13 11:35:04;;;;;;;8.00;4.80;;;;;;;25.12;50.74;101772.16;5035766;28;20065;-64
2021/08/13 11:37:56;;;;;;;7.97;5.40;;;;;;;24.98;51.15;101760.78;5035786;28;20049;-67